createdAt,value
2022-11-06T00:00:10.637Z,559.7
2022-11-06T00:01:12.838Z,559.6
2022-11-06T00:03:21.230Z,559.5
2022-11-06T00:04:23.233Z,559.9
2022-11-06T00:05:25.444Z,559.6
2022-11-06T00:06:27.636Z,559.6
2022-11-06T00:07:29.858Z,559.6
2022-11-06T00:08:32.054Z,559.3
2022-11-06T00:09:34.247Z,559.3
2022-11-06T00:10:36.716Z,559.5
2022-11-06T00:11:38.896Z,559.2
2022-11-06T00:12:41.090Z,558.8
2022-11-06T00:13:43.563Z,558.9
2022-11-06T00:14:45.775Z,558.8
2022-11-06T00:15:48.252Z,558.8
2022-11-06T00:16:50.716Z,559
2022-11-06T00:17:52.960Z,559.2
2022-11-06T00:18:55.512Z,559.3
2022-11-06T00:19:57.704Z,558.9
2022-11-06T00:21:00.187Z,558.7
2022-11-06T00:22:02.668Z,559.3
2022-11-06T00:23:04.607Z,558.8
2022-11-06T00:24:06.789Z,559.5
2022-11-06T00:25:09.260Z,559.9
2022-11-06T00:26:11.731Z,560.1
2022-11-06T00:27:13.637Z,560.1
2022-11-06T00:28:16.938Z,560.5
2022-11-06T00:29:19.129Z,560.6
2022-11-06T00:30:21.642Z,560.6
2022-11-06T00:31:23.622Z,560.8
2022-11-06T00:32:25.950Z,560.7
2022-11-06T00:33:28.154Z,561
2022-11-06T00:34:30.639Z,560.8
2022-11-06T00:35:33.156Z,561.4
2022-11-06T00:36:35.656Z,561.1
2022-11-06T00:37:37.576Z,561.1
2022-11-06T00:38:40.071Z,561.2
2022-11-06T00:39:42.264Z,561
2022-11-06T00:40:44.466Z,561.2
2022-11-06T00:41:46.380Z,561
2022-11-06T00:42:48.868Z,561.2
2022-11-06T00:43:51.042Z,561.1
2022-11-06T00:44:53.515Z,560.9
2022-11-06T00:45:55.715Z,560.9
2022-11-06T00:46:57.640Z,561.2
2022-11-06T00:48:00.117Z,560.9
2022-11-06T00:49:02.610Z,561
2022-11-06T00:50:05.069Z,561.3
2022-11-06T00:51:07.260Z,560.9
2022-11-06T00:52:09.727Z,560.8
2022-11-06T00:53:12.341Z,560.7
2022-11-06T00:54:14.525Z,560.7
2022-11-06T00:55:17.011Z,560.6
2022-11-06T00:56:19.206Z,560.3
2022-11-06T00:57:21.401Z,560.8
2022-11-06T00:58:23.879Z,560.8
2022-11-06T00:59:25.772Z,560.9
2022-11-06T01:00:27.968Z,560.3
2022-11-06T01:01:31.453Z,560.8
2022-11-06T01:02:34.941Z,560.6
2022-11-06T01:03:37.167Z,560.6
2022-11-06T01:04:39.115Z,560.5
2022-11-06T01:05:41.608Z,560.1
2022-11-06T01:06:44.067Z,560.2
2022-11-06T01:07:46.539Z,560
2022-11-06T01:08:49.011Z,560.6
2022-11-06T01:09:50.918Z,560.7
2022-11-06T01:10:53.129Z,560.9
2022-11-06T01:13:00.321Z,561.6
2022-11-06T01:14:02.516Z,561.8
2022-11-06T01:15:04.465Z,562.2
2022-11-06T01:16:06.667Z,562.1
2022-11-06T01:17:09.159Z,562
2022-11-06T01:18:13.259Z,561.8
2022-11-06T01:19:15.599Z,561.5
2022-11-06T01:20:18.073Z,561.8
2022-11-06T01:21:20.623Z,562.1
2022-11-06T01:22:22.819Z,562.2
2022-11-06T01:23:25.038Z,562.2
2022-11-06T01:24:27.457Z,562.2
2022-11-06T01:25:28.846Z,562.1
2022-11-06T01:27:36.008Z,562.6
2022-11-06T01:28:38.213Z,562.5
2022-11-06T01:29:40.405Z,562.5
2022-11-06T01:30:42.865Z,562.7
2022-11-06T01:31:45.357Z,562.9
2022-11-06T01:32:47.841Z,563.1
2022-11-06T01:33:49.777Z,563.3
2022-11-06T01:34:52.247Z,563
2022-11-06T01:35:54.728Z,563.4
2022-11-06T01:36:57.326Z,563.8
2022-11-06T01:37:59.800Z,563.7
2022-11-06T01:39:02.003Z,563.7
2022-11-06T01:40:04.180Z,563.7
2022-11-06T01:41:06.378Z,563.8
2022-11-06T01:42:08.570Z,563.6
2022-11-06T01:43:10.475Z,564
2022-11-06T01:44:12.947Z,565.5
2022-11-06T01:45:15.450Z,564.4
2022-11-06T01:46:17.915Z,564.9
2022-11-06T01:47:20.106Z,565.1
2022-11-06T01:48:22.602Z,565
2022-11-06T01:49:25.070Z,565.2
2022-11-06T01:50:27.559Z,565.4
2022-11-06T01:51:30.055Z,565.6
2022-11-06T01:52:32.691Z,565.4
2022-11-06T01:53:35.156Z,565.3
2022-11-06T01:54:37.079Z,565.2
2022-11-06T01:55:39.551Z,565.6
2022-11-06T01:56:41.499Z,565.6
2022-11-06T01:57:43.976Z,565.5
2022-11-06T01:58:46.445Z,565.3
2022-11-06T01:59:48.644Z,565
2022-11-06T02:00:51.145Z,565.4
2022-11-06T02:01:54.165Z,565.1
2022-11-06T02:02:57.865Z,565
2022-11-06T02:04:00.293Z,564.9
2022-11-06T02:05:02.194Z,564.5
2022-11-06T02:06:04.385Z,565.1
2022-11-06T02:07:06.326Z,564.1
2022-11-06T02:08:09.014Z,564.7
2022-11-06T02:09:11.210Z,564.4
2022-11-06T02:10:13.700Z,565
2022-11-06T02:11:15.908Z,564.9
2022-11-06T02:12:18.084Z,564.9
2022-11-06T02:13:20.559Z,564.6
2022-11-06T02:14:22.480Z,564.9
2022-11-06T02:15:24.954Z,565
2022-11-06T02:16:27.152Z,565.2
2022-11-06T02:17:29.634Z,565.1
2022-11-06T02:18:31.828Z,565.3
2022-11-06T02:19:34.334Z,565
2022-11-06T02:20:36.528Z,565.6
2022-11-06T02:21:39.000Z,565.5
2022-11-06T02:22:41.475Z,565.8
2022-11-06T02:23:44.169Z,565.9
2022-11-06T02:24:46.670Z,566
2022-11-06T02:25:49.143Z,565.6
2022-11-06T02:26:51.621Z,565.6
2022-11-06T02:27:54.098Z,566.1
2022-11-06T02:28:55.760Z,566
2022-11-06T02:29:58.225Z,566.2
2022-11-06T02:31:00.143Z,566.6
2022-11-06T02:32:02.623Z,566.1
2022-11-06T02:33:04.820Z,566.3
2022-11-06T02:34:07.287Z,566.6
2022-11-06T02:35:09.506Z,566.6
2022-11-06T02:36:11.706Z,566.7
2022-11-06T02:37:14.180Z,566.4
2022-11-06T02:38:17.505Z,566.5
2022-11-06T02:39:19.858Z,566.7
2022-11-06T02:40:22.315Z,566.9
2022-11-06T02:41:24.802Z,567
2022-11-06T02:42:27.267Z,567.3
2022-11-06T02:43:29.466Z,567.5
2022-11-06T02:44:31.942Z,567.4
2022-11-06T02:45:34.413Z,567.9
2022-11-06T02:46:36.900Z,567.6
2022-11-06T02:47:39.090Z,567.9
2022-11-06T02:48:41.560Z,568.4
2022-11-06T02:49:43.195Z,568.6
2022-11-06T02:50:45.108Z,568.4
2022-11-06T02:51:47.287Z,568.5
2022-11-06T02:52:49.759Z,568.7
2022-11-06T02:53:51.953Z,568.8
2022-11-06T02:54:54.586Z,568.6
2022-11-06T02:55:57.047Z,568.5
2022-11-06T02:56:58.965Z,568.7
2022-11-06T02:58:01.462Z,568.3
2022-11-06T02:59:03.660Z,568.3
2022-11-06T03:00:05.873Z,568
2022-11-06T03:01:08.064Z,568.2
2022-11-06T03:02:11.422Z,568.1
2022-11-06T03:03:13.980Z,568.2
2022-11-06T03:04:15.900Z,568.9
2022-11-06T03:05:18.071Z,568.7
2022-11-06T03:06:20.308Z,568.6
2022-11-06T03:07:22.782Z,568.7
2022-11-06T03:08:24.782Z,568.8
2022-11-06T03:09:27.262Z,568.5
2022-11-06T03:10:29.815Z,568.9
2022-11-06T03:11:32.272Z,568.7
2022-11-06T03:12:34.183Z,568.6
2022-11-06T03:13:36.357Z,568.5
2022-11-06T03:14:38.547Z,568.8
2022-11-06T03:15:40.467Z,569.1
2022-11-06T03:16:42.644Z,569.3
2022-11-06T03:17:45.117Z,569.1
2022-11-06T03:18:47.596Z,569.3
2022-11-06T03:19:49.530Z,569.2
2022-11-06T03:20:51.734Z,569
2022-11-06T03:21:54.246Z,569.2
2022-11-06T03:22:56.443Z,569
2022-11-06T03:23:58.906Z,569.4
2022-11-06T03:25:00.582Z,568.7
2022-11-06T03:26:02.858Z,568.8
2022-11-06T03:27:05.317Z,568.9
2022-11-06T03:28:07.789Z,568.5
2022-11-06T03:29:09.996Z,568.5
2022-11-06T03:31:17.258Z,568.4
2022-11-06T03:32:19.459Z,568.5
2022-11-06T03:33:21.938Z,568.5
2022-11-06T03:34:24.131Z,568.4
2022-11-06T03:35:26.346Z,568.3
2022-11-06T03:36:28.609Z,568.7
2022-11-06T03:37:31.120Z,568.7
2022-11-06T03:38:35.261Z,568.4
2022-11-06T03:39:40.262Z,568.8
2022-11-06T03:40:42.459Z,568.9
2022-11-06T03:41:44.848Z,568.5
2022-11-06T03:42:47.037Z,568.7
2022-11-06T03:43:49.529Z,568.6
2022-11-06T03:44:51.723Z,568.5
2022-11-06T03:45:53.962Z,568.1
2022-11-06T03:46:56.164Z,568.6
2022-11-06T03:47:58.090Z,568.2
2022-11-06T03:49:00.281Z,568.2
2022-11-06T03:50:02.842Z,568.6
2022-11-06T03:51:05.032Z,568.7
2022-11-06T03:52:06.959Z,568.8
2022-11-06T03:53:09.167Z,569
2022-11-06T03:54:11.088Z,569.2
2022-11-06T03:55:12.711Z,569.1
2022-11-06T03:56:14.917Z,569.6
2022-11-06T03:57:17.701Z,569.2
2022-11-06T03:58:20.388Z,569.4
2022-11-06T03:59:22.645Z,569.4
2022-11-06T04:00:25.116Z,569.7
2022-11-06T04:01:28.115Z,569.4
2022-11-06T04:02:31.166Z,569.7
2022-11-06T04:03:33.420Z,569.8
2022-11-06T04:04:35.622Z,569.8
2022-11-06T04:05:37.793Z,569.5
2022-11-06T04:06:40.274Z,569.3
2022-11-06T04:07:42.464Z,569.1
2022-11-06T04:08:44.401Z,569.7
2022-11-06T04:09:46.319Z,569.6
2022-11-06T04:10:48.242Z,569.8
2022-11-06T04:11:50.153Z,570.2
2022-11-06T04:12:52.863Z,570
2022-11-06T04:13:55.343Z,570
2022-11-06T04:14:57.539Z,570.4
2022-11-06T04:16:00.006Z,570
2022-11-06T04:17:02.199Z,570.2
2022-11-06T04:18:04.395Z,570.2
2022-11-06T04:19:07.289Z,570.2
2022-11-06T04:20:09.217Z,570.2
2022-11-06T04:21:11.175Z,570.1
2022-11-06T04:22:13.350Z,570.3
2022-11-06T04:23:15.277Z,570.2
2022-11-06T04:24:17.495Z,570.1
2022-11-06T04:25:19.969Z,570.5
2022-11-06T04:26:22.158Z,569.7
2022-11-06T04:27:24.102Z,569.9
2022-11-06T04:28:26.646Z,570
2022-11-06T04:29:28.556Z,569.7
2022-11-06T04:30:30.452Z,569.8
2022-11-06T04:31:32.381Z,570
2022-11-06T04:32:34.591Z,570.2
2022-11-06T04:33:36.779Z,570.2
2022-11-06T04:34:38.988Z,571.2
2022-11-06T04:35:41.168Z,570.5
2022-11-06T04:36:43.076Z,570.7
2022-11-06T04:37:45.029Z,571
2022-11-06T04:38:47.501Z,571.3
2022-11-06T04:39:49.701Z,571.1
2022-11-06T04:40:52.181Z,571
2022-11-06T04:41:54.369Z,571
2022-11-06T04:42:56.266Z,571
2022-11-06T04:43:58.874Z,571.2
2022-11-06T04:45:01.343Z,571
2022-11-06T04:46:03.537Z,570.7
2022-11-06T04:47:06.006Z,570.9
2022-11-06T04:48:08.487Z,571
2022-11-06T04:49:10.958Z,571.3
2022-11-06T04:50:13.453Z,571.4
2022-11-06T04:51:15.647Z,571.2
2022-11-06T04:52:18.112Z,571.4
2022-11-06T04:53:20.287Z,571.5
2022-11-06T04:54:22.481Z,571.5
2022-11-06T04:55:24.706Z,571.5
2022-11-06T04:57:33.319Z,571.4
2022-11-06T04:58:35.519Z,571.4
2022-11-06T04:59:37.983Z,571.9
2022-11-06T05:00:40.527Z,571.8
2022-11-06T05:01:43.913Z,571.7
2022-11-06T05:02:45.859Z,571.3
2022-11-06T05:03:48.038Z,571.5
2022-11-06T05:04:50.239Z,571.4
2022-11-06T05:05:52.447Z,571.7
2022-11-06T05:06:54.914Z,571.4
2022-11-06T05:07:57.108Z,571.7
2022-11-06T05:08:59.642Z,571.8
2022-11-06T05:10:01.856Z,571.7
2022-11-06T05:11:04.339Z,572
2022-11-06T05:12:06.810Z,572
2022-11-06T05:13:09.001Z,572.1
2022-11-06T05:14:10.925Z,572
2022-11-06T05:15:13.567Z,572.3
2022-11-06T05:16:16.059Z,572.4
2022-11-06T05:17:18.207Z,572.5
2022-11-06T05:18:20.411Z,572.5
2022-11-06T05:19:22.604Z,572.9
2022-11-06T05:20:24.815Z,573.3
2022-11-06T05:21:26.867Z,573
2022-11-06T05:22:29.357Z,573.4
2022-11-06T05:23:31.548Z,573.2
2022-11-06T05:24:33.739Z,573.2
2022-11-06T05:25:36.209Z,573.8
2022-11-06T05:26:38.423Z,574.2
2022-11-06T05:27:40.619Z,574.1
2022-11-06T05:28:42.553Z,574.2
2022-11-06T05:29:44.477Z,574.4
2022-11-06T05:30:47.036Z,574.4
2022-11-06T05:31:49.500Z,574.3
2022-11-06T05:32:51.974Z,574.3
2022-11-06T05:33:54.174Z,574.2
2022-11-06T05:34:56.365Z,574.3
2022-11-06T05:35:58.560Z,574.4
2022-11-06T05:37:00.464Z,573.9
2022-11-06T05:38:02.370Z,574
2022-11-06T05:39:04.562Z,574.1
2022-11-06T05:40:06.193Z,574
2022-11-06T05:41:08.389Z,574.4
2022-11-06T05:42:11.120Z,573.9
2022-11-06T05:43:13.590Z,574.2
2022-11-06T05:44:16.049Z,574
2022-11-06T05:45:18.531Z,573.6
2022-11-06T05:47:26.163Z,574
2022-11-06T05:48:28.655Z,574.4
2022-11-06T05:49:30.855Z,574.5
2022-11-06T05:50:33.320Z,574.7
2022-11-06T05:51:35.519Z,575.1
2022-11-06T05:52:37.993Z,575.2
2022-11-06T05:53:39.915Z,575.1
2022-11-06T05:54:42.376Z,575.1
2022-11-06T05:55:44.846Z,575.4
2022-11-06T05:56:47.315Z,575.5
2022-11-06T05:57:49.810Z,575.3
2022-11-06T05:58:52.010Z,575.3
2022-11-06T05:59:53.927Z,575.4
2022-11-06T06:00:55.848Z,575.5
2022-11-06T06:01:58.360Z,575.9
2022-11-06T06:03:01.315Z,575.6
2022-11-06T06:04:03.825Z,575.9
2022-11-06T06:05:06.011Z,575.8
2022-11-06T06:06:08.485Z,575.8
2022-11-06T06:07:10.684Z,576.4
2022-11-06T06:08:15.259Z,575.7
2022-11-06T06:09:17.941Z,575.8
2022-11-06T06:10:20.134Z,576.3
2022-11-06T06:11:22.611Z,576.5
2022-11-06T06:12:25.077Z,577
2022-11-06T06:13:27.399Z,577.3
2022-11-06T06:14:29.326Z,577
2022-11-06T06:15:31.246Z,576.8
2022-11-06T06:16:33.746Z,576.9
2022-11-06T06:17:36.227Z,576.7
2022-11-06T06:18:38.952Z,576.8
2022-11-06T06:19:41.153Z,577.1
2022-11-06T06:20:43.070Z,577
2022-11-06T06:21:45.265Z,577.5
2022-11-06T06:22:47.485Z,577.1
2022-11-06T06:23:49.955Z,577
2022-11-06T06:24:52.252Z,577
2022-11-06T06:25:54.765Z,577.5
2022-11-06T06:26:56.958Z,577.7
2022-11-06T06:27:59.149Z,578
2022-11-06T06:29:01.402Z,578.4
2022-11-06T06:30:03.882Z,578.4
2022-11-06T06:31:06.371Z,578.2
2022-11-06T06:32:08.833Z,578.1
2022-11-06T06:33:11.041Z,578.4
2022-11-06T06:34:13.761Z,577.8
2022-11-06T06:35:15.955Z,578.1
2022-11-06T06:36:18.149Z,577.8
2022-11-06T06:37:21.696Z,577.9
2022-11-06T06:38:23.315Z,578
2022-11-06T06:39:24.672Z,578.1
2022-11-06T06:40:26.591Z,578.1
2022-11-06T06:41:28.786Z,578.7
2022-11-06T06:43:35.709Z,579.1
2022-11-06T06:44:37.910Z,578.7
2022-11-06T06:45:39.539Z,578.5
2022-11-06T06:46:41.778Z,578.4
2022-11-06T06:47:44.247Z,577.8
2022-11-06T06:48:46.717Z,578.4
2022-11-06T06:49:49.010Z,578
2022-11-06T06:50:50.644Z,578.8
2022-11-06T06:51:52.590Z,579
2022-11-06T06:52:55.053Z,579.3
2022-11-06T06:53:57.527Z,579.2
2022-11-06T06:55:00.069Z,579.7
2022-11-06T06:56:02.571Z,579
2022-11-06T06:57:04.769Z,579.1
2022-11-06T06:58:06.966Z,579
2022-11-06T06:59:09.171Z,579.2
2022-11-06T07:00:11.688Z,579.1
2022-11-06T07:01:14.762Z,579
2022-11-06T07:02:17.527Z,579.4
2022-11-06T07:03:19.471Z,578.8
2022-11-06T07:04:21.943Z,579
2022-11-06T07:05:23.927Z,579.1
2022-11-06T07:06:26.396Z,578.5
2022-11-06T07:07:28.314Z,578.5
2022-11-06T07:08:30.241Z,578.5
2022-11-06T07:09:32.429Z,578.3
2022-11-06T07:10:34.643Z,578.1
2022-11-06T07:11:36.552Z,577.9
2022-11-06T07:12:38.190Z,578.1
2022-11-06T07:13:40.664Z,577.9
2022-11-06T07:14:42.873Z,577.5
2022-11-06T07:15:44.825Z,577.5
2022-11-06T07:17:52.017Z,577.7
2022-11-06T07:18:53.929Z,578.3
2022-11-06T07:19:55.869Z,578.2
2022-11-06T07:20:58.440Z,577.6
2022-11-06T07:22:00.359Z,577
2022-11-06T07:23:02.270Z,576.6
2022-11-06T07:24:04.758Z,576.5
2022-11-06T07:25:06.944Z,576.2
2022-11-06T07:26:09.143Z,576.1
2022-11-06T07:27:11.064Z,575.9
2022-11-06T07:28:12.967Z,576
2022-11-06T07:29:15.176Z,575.6
2022-11-06T07:30:16.846Z,575.5
2022-11-06T07:31:19.108Z,575.5
2022-11-06T07:32:21.583Z,575.6
2022-11-06T07:33:24.058Z,575.9
2022-11-06T07:34:25.962Z,575.8
2022-11-06T07:35:28.155Z,575.9
2022-11-06T07:36:30.860Z,575.9
2022-11-06T07:37:33.083Z,575.8
2022-11-06T07:38:35.569Z,575.9
2022-11-06T07:39:37.759Z,575.8
2022-11-06T07:40:39.676Z,576
2022-11-06T07:41:42.157Z,575.9
2022-11-06T07:42:45.520Z,575.8
2022-11-06T07:43:47.715Z,575.4
2022-11-06T07:44:49.911Z,575.6
2022-11-06T07:45:52.379Z,575.3
2022-11-06T07:46:54.939Z,575.2
2022-11-06T07:49:01.849Z,575.4
2022-11-06T07:50:04.317Z,575.6
2022-11-06T07:51:06.795Z,575.5
2022-11-06T07:52:09.294Z,575.7
2022-11-06T07:53:13.583Z,576.4
2022-11-06T07:54:16.212Z,576.8
2022-11-06T07:55:18.116Z,576.5
2022-11-06T07:56:20.285Z,577
2022-11-06T07:57:22.215Z,577.1
2022-11-06T07:58:24.407Z,577.1
2022-11-06T07:59:26.773Z,577.2
2022-11-06T08:00:29.250Z,577.5
2022-11-06T08:01:32.585Z,578
2022-11-06T08:02:35.677Z,578
2022-11-06T08:03:38.201Z,577.9
2022-11-06T08:04:40.395Z,578
2022-11-06T08:05:42.588Z,578.6
2022-11-06T08:06:44.498Z,579.2
2022-11-06T08:07:47.138Z,579.1
2022-11-06T08:08:49.336Z,579.1
2022-11-06T08:09:51.244Z,579.5
2022-11-06T08:10:53.185Z,579.9
2022-11-06T08:11:55.089Z,580.2
2022-11-06T08:12:57.613Z,580.2
2022-11-06T08:13:59.816Z,580.7
2022-11-06T08:15:02.028Z,580.6
2022-11-06T08:16:04.511Z,580.8
2022-11-06T08:17:06.446Z,581.1
2022-11-06T08:18:08.687Z,581.1
2022-11-06T08:19:10.884Z,580.7
2022-11-06T08:20:13.360Z,580.9
2022-11-06T08:21:15.583Z,580.8
2022-11-06T08:22:17.824Z,580.6
2022-11-06T08:23:20.390Z,581
2022-11-06T08:24:24.300Z,580.9
2022-11-06T08:25:26.818Z,581.2
2022-11-06T08:26:29.288Z,581.7
2022-11-06T08:27:31.228Z,581.3
2022-11-06T08:28:33.441Z,581.7
2022-11-06T08:30:40.908Z,581.6
2022-11-06T08:31:43.112Z,581.9
2022-11-06T08:32:45.325Z,581.4
2022-11-06T08:33:47.542Z,581.5
2022-11-06T08:34:49.736Z,581.4
2022-11-06T08:35:51.939Z,581.5
2022-11-06T08:36:54.409Z,581.5
2022-11-06T08:37:56.076Z,581.9
2022-11-06T08:38:58.465Z,581.4
2022-11-06T08:40:00.926Z,581.8
2022-11-06T08:41:03.166Z,581.7
2022-11-06T08:42:05.633Z,582.2
2022-11-06T08:43:07.861Z,582.3
2022-11-06T08:44:10.059Z,582.4
2022-11-06T08:45:11.970Z,582.6
2022-11-06T08:46:13.897Z,582.6
2022-11-06T08:47:16.142Z,582.6
2022-11-06T08:48:19.171Z,582.8
2022-11-06T08:49:21.105Z,582.8
2022-11-06T08:50:23.576Z,582.7
2022-11-06T08:51:25.776Z,582.8
2022-11-06T08:53:33.393Z,583
2022-11-06T08:54:35.986Z,583.4
2022-11-06T08:55:38.464Z,583.7
2022-11-06T08:56:40.639Z,583.5
2022-11-06T08:57:43.117Z,584.1
2022-11-06T08:58:45.344Z,584.6
2022-11-06T08:59:47.543Z,584.1
2022-11-06T09:00:50.426Z,584.3
2022-11-06T09:01:53.871Z,584.8
2022-11-06T09:02:55.575Z,584.7
2022-11-06T09:03:58.111Z,584.7
2022-11-06T09:05:00.352Z,584.6
2022-11-06T09:06:02.558Z,585.5
2022-11-06T09:07:05.049Z,585.6
2022-11-06T09:08:07.554Z,585.8
2022-11-06T09:09:10.032Z,585.8
2022-11-06T09:10:12.611Z,586.6
2022-11-06T09:11:15.091Z,586.5
2022-11-06T09:12:16.992Z,586.8
2022-11-06T09:13:19.481Z,586.7
2022-11-06T09:14:21.402Z,587
2022-11-06T09:15:23.595Z,587.5
2022-11-06T09:16:26.073Z,587.2
2022-11-06T09:17:27.979Z,587.7
2022-11-06T09:18:30.471Z,588.1
2022-11-06T09:19:32.939Z,587.8
2022-11-06T09:20:34.622Z,588.1
2022-11-06T09:21:36.543Z,588.2
2022-11-06T09:22:38.467Z,588.6
2022-11-06T09:23:40.390Z,588.6
2022-11-06T09:25:47.937Z,589.2
2022-11-06T09:26:50.398Z,588.8
2022-11-06T09:28:57.866Z,589.7
2022-11-06T09:30:00.070Z,590
2022-11-06T09:31:01.987Z,589.9
2022-11-06T09:32:03.897Z,590.6
2022-11-06T09:34:11.358Z,590.6
2022-11-06T09:35:13.274Z,590.9
2022-11-06T09:36:15.775Z,591.5
2022-11-06T09:37:17.956Z,591.8
2022-11-06T09:38:20.183Z,591.6
2022-11-06T09:39:22.110Z,591.5
2022-11-06T09:40:24.583Z,591.8
2022-11-06T09:41:26.594Z,591.6
2022-11-06T09:42:29.060Z,591.9
2022-11-06T09:44:36.524Z,591.9
2022-11-06T09:45:38.723Z,591.7
2022-11-06T09:46:41.208Z,592.4
2022-11-06T09:47:43.681Z,592.4
2022-11-06T09:48:46.155Z,592.3
2022-11-06T09:49:48.357Z,592.7
2022-11-06T09:50:49.999Z,592.6
2022-11-06T09:51:53.269Z,592.6
2022-11-06T09:54:03.563Z,592.7
2022-11-06T09:55:07.181Z,592.5
2022-11-06T09:56:09.897Z,592.9
2022-11-06T09:57:12.439Z,592.7
2022-11-06T09:58:16.870Z,592.8
2022-11-06T09:59:19.173Z,592.6
2022-11-06T10:00:21.395Z,592.3
2022-11-06T10:02:29.045Z,592.4
2022-11-06T10:03:31.316Z,592.9
2022-11-06T10:04:33.789Z,593.1
2022-11-06T10:05:35.983Z,593.5
2022-11-06T10:06:38.475Z,594.2
2022-11-06T10:07:40.974Z,594.3
2022-11-06T10:08:42.898Z,594.5
2022-11-06T10:09:45.368Z,594.4
2022-11-06T10:10:47.573Z,594.8
2022-11-06T10:11:50.078Z,595.3
2022-11-06T10:12:52.637Z,595.3
2022-11-06T10:13:55.133Z,595.9
2022-11-06T10:14:57.335Z,595.9
2022-11-06T10:15:59.531Z,596.4
2022-11-06T10:17:02.013Z,596.8
2022-11-06T10:18:03.926Z,596.8
2022-11-06T10:19:06.126Z,597
2022-11-06T10:20:08.343Z,597.5
2022-11-06T10:21:10.275Z,597.6
2022-11-06T10:22:12.473Z,597.6
2022-11-06T10:23:15.081Z,598.2
2022-11-06T10:24:17.553Z,598.4
2022-11-06T10:25:19.485Z,598.2
2022-11-06T10:26:21.663Z,598.8
2022-11-06T10:27:23.587Z,598.5
2022-11-06T10:28:25.876Z,599
2022-11-06T10:29:28.352Z,599
2022-11-06T10:30:30.827Z,599
2022-11-06T10:31:33.358Z,598.9
2022-11-06T10:32:35.551Z,599.1
2022-11-06T10:33:37.756Z,599.1
2022-11-06T10:34:39.672Z,599.3
2022-11-06T10:35:41.878Z,599.8
2022-11-06T10:37:49.091Z,600.1
2022-11-06T10:38:51.429Z,600.6
2022-11-06T10:39:53.355Z,600.5
2022-11-06T10:40:55.547Z,600.7
2022-11-06T10:41:57.765Z,601.2
2022-11-06T10:42:59.697Z,601.2
2022-11-06T10:44:02.357Z,601.3
2022-11-06T10:45:04.832Z,601.9
2022-11-06T10:46:07.343Z,601.9
2022-11-06T10:47:09.818Z,602
2022-11-06T10:48:14.141Z,602
2022-11-06T10:49:16.775Z,602.1
2022-11-06T10:50:18.985Z,602
2022-11-06T10:51:21.477Z,602.4
2022-11-06T10:52:23.414Z,603
2022-11-06T10:53:25.904Z,602.7
2022-11-06T10:54:28.399Z,602.7
2022-11-06T10:55:30.870Z,603.7
2022-11-06T10:56:33.345Z,603.8
2022-11-06T10:57:35.554Z,603.9
2022-11-06T10:58:37.762Z,604.5
2022-11-06T10:59:40.324Z,604.9
2022-11-06T11:00:42.942Z,604.9
2022-11-06T11:01:45.396Z,605.1
2022-11-06T11:02:47.617Z,604.8
2022-11-06T11:03:50.090Z,605.1
2022-11-06T11:05:57.578Z,605.9
2022-11-06T11:07:00.129Z,606.2
2022-11-06T11:08:02.613Z,606.9
2022-11-06T11:09:05.089Z,607.1
2022-11-06T11:10:07.586Z,607.6
2022-11-06T11:11:10.047Z,607.4
2022-11-06T11:12:12.515Z,607.3
2022-11-06T11:13:14.997Z,608.1
2022-11-06T11:14:16.920Z,607.9
2022-11-06T11:15:19.576Z,607.8
2022-11-06T11:16:21.855Z,608.2
2022-11-06T11:17:23.773Z,608.3
2022-11-06T11:18:25.974Z,608.2
2022-11-06T11:19:28.359Z,608.1
2022-11-06T11:20:30.027Z,608.4
2022-11-06T11:21:32.223Z,608.8
2022-11-06T11:22:35.164Z,608.8
2022-11-06T11:23:37.639Z,608.7
2022-11-06T11:24:40.111Z,609.2
2022-11-06T11:25:42.601Z,609.3
2022-11-06T11:26:44.815Z,609.2
2022-11-06T11:27:47.295Z,609.4
2022-11-06T11:28:49.769Z,609.3
2022-11-06T11:29:51.959Z,609.1
2022-11-06T11:30:54.728Z,609
2022-11-06T11:31:56.925Z,609.2
2022-11-06T11:32:59.396Z,609.1
2022-11-06T11:34:01.864Z,609.2
2022-11-06T11:35:04.342Z,609
2022-11-06T11:36:06.703Z,609.2
2022-11-06T11:37:08.967Z,609.6
2022-11-06T11:38:12.699Z,609.7
2022-11-06T11:39:15.111Z,609.9
2022-11-06T11:40:17.661Z,609.8
2022-11-06T11:41:20.196Z,609.7
2022-11-06T11:42:22.678Z,609.9
2022-11-06T11:43:24.873Z,609.9
2022-11-06T11:44:27.379Z,610
2022-11-06T11:45:29.573Z,610.2
2022-11-06T11:46:32.196Z,610.5
2022-11-06T11:47:34.489Z,610.6
2022-11-06T11:48:36.960Z,611.1
2022-11-06T11:49:39.162Z,611
2022-11-06T11:50:41.355Z,610.9
2022-11-06T11:51:43.548Z,611.2
2022-11-06T11:52:45.831Z,611.1
2022-11-06T11:53:48.330Z,611.6
2022-11-06T11:54:50.507Z,611.5
2022-11-06T11:55:52.707Z,612.1
2022-11-06T11:57:59.899Z,612.2
2022-11-06T11:59:02.374Z,612.3
2022-11-06T12:00:05.107Z,612.6
2022-11-06T12:01:07.751Z,612.6
2022-11-06T12:02:11.708Z,613
2022-11-06T12:03:14.864Z,613.2
2022-11-06T12:04:17.391Z,612.8
2022-11-06T12:05:19.903Z,613.3
2022-11-06T12:06:22.190Z,613
2022-11-06T12:07:24.387Z,612.9
2022-11-06T12:08:26.871Z,613.2
2022-11-06T12:09:29.061Z,613.6
2022-11-06T12:10:30.986Z,613.8
2022-11-06T12:11:33.200Z,613.8
2022-11-06T12:12:35.430Z,613.8
2022-11-06T12:13:37.364Z,613.4
2022-11-06T12:14:39.263Z,613.6
2022-11-06T12:15:41.440Z,613.8
2022-11-06T12:16:43.350Z,613.6
2022-11-06T12:17:45.741Z,613.7
2022-11-06T12:18:47.963Z,613.6
2022-11-06T12:19:50.162Z,613.9
2022-11-06T12:20:52.371Z,613.4
2022-11-06T12:21:54.576Z,613.8
2022-11-06T12:22:56.495Z,613.9
2022-11-06T12:23:58.668Z,614.1
2022-11-06T12:25:00.858Z,613.9
2022-11-06T12:26:03.069Z,613.8
2022-11-06T12:27:04.996Z,613.8
2022-11-06T12:28:06.933Z,613.8
2022-11-06T12:29:08.588Z,613.6
2022-11-06T12:30:10.776Z,613.7
2022-11-06T12:31:13.267Z,613.9
2022-11-06T12:32:15.737Z,613.9
2022-11-06T12:33:18.407Z,614.3
2022-11-06T12:34:20.609Z,614.2
2022-11-06T12:35:23.123Z,614.1
2022-11-06T12:36:25.327Z,614.6
2022-11-06T12:37:27.820Z,614.8
2022-11-06T12:38:30.013Z,614.6
2022-11-06T12:39:32.217Z,614.6
2022-11-06T12:40:34.689Z,615.1
2022-11-06T12:41:36.887Z,614.9
2022-11-06T12:42:39.092Z,615.6
2022-11-06T12:43:41.581Z,615.5
2022-11-06T12:44:43.222Z,615.3
2022-11-06T12:45:45.705Z,614.5
2022-11-06T12:46:48.184Z,614.4
2022-11-06T12:47:50.394Z,614
2022-11-06T12:48:53.138Z,614
2022-11-06T12:49:55.365Z,613.5
2022-11-06T12:50:57.858Z,613.7
2022-11-06T12:52:00.048Z,613.7
2022-11-06T12:54:07.237Z,613.2
2022-11-06T12:55:09.405Z,613.7
2022-11-06T12:56:11.888Z,614.1
2022-11-06T12:57:13.784Z,613.4
2022-11-06T12:58:17.913Z,613.5
2022-11-06T12:59:20.161Z,613.6
2022-11-06T13:00:27.224Z,613.6
2022-11-06T13:01:31.573Z,613.4
2022-11-06T13:02:34.794Z,613.5
2022-11-06T13:03:37.325Z,613.7
2022-11-06T13:04:39.604Z,613.3
2022-11-06T13:05:41.796Z,613.6
2022-11-06T13:06:43.994Z,613.4
2022-11-06T13:07:46.488Z,613.6
2022-11-06T13:08:48.684Z,614.3
2022-11-06T13:09:51.179Z,614.5
2022-11-06T13:10:53.377Z,614.4
2022-11-06T13:11:55.588Z,615.7
2022-11-06T13:12:57.241Z,616.6
2022-11-06T13:13:59.450Z,617
2022-11-06T13:15:01.938Z,617.5
2022-11-06T13:16:04.442Z,617.7
2022-11-06T13:17:06.938Z,617.7
2022-11-06T13:18:09.404Z,618.1
2022-11-06T13:19:11.596Z,618.6
2022-11-06T13:20:14.376Z,618.8
2022-11-06T13:21:16.599Z,619
2022-11-06T13:22:18.522Z,618.9
2022-11-06T13:23:21.013Z,619.1
2022-11-06T13:24:23.196Z,619.2
2022-11-06T13:25:25.404Z,619
2022-11-06T13:26:27.617Z,619.4
2022-11-06T13:27:29.811Z,619.2
2022-11-06T13:28:31.727Z,619.5
2022-11-06T13:29:33.918Z,620.2
2022-11-06T13:30:36.124Z,620.1
2022-11-06T13:31:38.089Z,620.2
2022-11-06T13:32:40.561Z,620.3
2022-11-06T13:33:42.802Z,620.8
2022-11-06T13:34:45.285Z,620.6
2022-11-06T13:35:47.933Z,621.3
2022-11-06T13:36:50.128Z,621
2022-11-06T13:37:52.062Z,621.5
2022-11-06T13:38:54.308Z,621.2
2022-11-06T13:39:56.507Z,621.2
2022-11-06T13:42:03.676Z,621.4
2022-11-06T13:43:06.152Z,622.2
2022-11-06T13:44:08.680Z,622.8
2022-11-06T13:45:10.872Z,623.1
2022-11-06T13:46:13.390Z,623.8
2022-11-06T13:47:15.294Z,623.6
2022-11-06T13:48:18.448Z,623.8
2022-11-06T13:49:20.920Z,624.1
2022-11-06T13:50:23.389Z,623.9
2022-11-06T13:51:26.041Z,624.3
2022-11-06T13:52:28.527Z,624.5